sensor_id;sensor_type;location;lat;lon;timestamp;pressure;altitude;pressure_sealevel;temperature;humidity
24868;BME280;12941;48.698;9.310;2024-02-23T00:00:09;95948.7;;;11.7;63.13
24868;BME280;12941;48.698;9.310;2024-02-23T00:01:09;95950;;;11.66;62.984
24868;BME280;12941;48.698;9.310;2024-02-23T00:02:14;95954.4;;;11.64;63.564
24868;BME280;12941;48.698;9.310;2024-02-23T00:03:19;95956.4;;;11.61;64.411
24868;BME280;12941;48.698;9.310;2024-02-23T00:04:19;95955.4;;;11.63;64.555
24868;BME280;12941;48.698;9.310;2024-02-23T00:05:24;95959.5;;;11.64;64.223
24868;BME280;12941;48.698;9.310;2024-02-23T00:06:29;95957;;;11.64;64.892
24868;BME280;12941;48.698;9.310;2024-02-23T00:07:29;95957.5;;;11.68;64.853
24868;BME280;12941;48.698;9.310;2024-02-23T00:08:34;95964.09999999999;;;11.7;64.328
24868;BME280;12941;48.698;9.310;2024-02-23T00:09:34;95966.5;;;11.72;64.179
24868;BME280;12941;48.698;9.310;2024-02-23T00:10:34;95968;;;11.74;64.366
24868;BME280;12941;48.698;9.310;2024-02-23T00:11:34;95968.8;;;11.75;63.666
24868;BME280;12941;48.698;9.310;2024-02-23T00:12:39;95969.9;;;11.72;63.78
24868;BME280;12941;48.698;9.310;2024-02-23T00:13:39;95968;;;11.74;64.313
24868;BME280;12941;48.698;9.310;2024-02-23T00:14:39;95964.5;;;11.75;64.023
24868;BME280;12941;48.698;9.310;2024-02-23T00:15:39;95971.3;;;11.76;63.959
24868;BME280;12941;48.698;9.310;2024-02-23T00:16:44;95966;;;11.78;63.249
24868;BME280;12941;48.698;9.310;2024-02-23T00:17:49;95959.1;;;11.78;63.736
24868;BME280;12941;48.698;9.310;2024-02-23T00:18:49;95966.7;;;11.8;64.214
24868;BME280;12941;48.698;9.310;2024-02-23T00:19:54;95968.6;;;11.78;63.303
24868;BME280;12941;48.698;9.310;2024-02-23T00:20:54;95984.1;;;11.76;63.743
24868;BME280;12941;48.698;9.310;2024-02-23T00:21:59;95986;;;11.74;63.924
24868;BME280;12941;48.698;9.310;2024-02-23T00:23:04;95994.9;;;11.7;64.166
24868;BME280;12941;48.698;9.310;2024-02-23T00:24:09;95994.3;;;11.68;64.164
24868;BME280;12941;48.698;9.310;2024-02-23T00:25:14;96005.1;;;11.62;63.367
24868;BME280;12941;48.698;9.310;2024-02-23T00:26:14;96004.5;;;11.59;63.74
24868;BME280;12941;48.698;9.310;2024-02-23T00:27:19;96001.5;;;11.54;63.829
24868;BME280;12941;48.698;9.310;2024-02-23T00:28:24;96006.5;;;11.55;64.004
24868;BME280;12941;48.698;9.310;2024-02-23T00:29:24;96006.5;;;11.55;64.673
24868;BME280;12941;48.698;9.310;2024-02-23T00:30:24;96007.4;;;11.56;64.543
24868;BME280;12941;48.698;9.310;2024-02-23T00:31:29;96009.3;;;11.54;64.519
24868;BME280;12941;48.698;9.310;2024-02-23T00:32:35;96011.3;;;11.5;63.458
24868;BME280;12941;48.698;9.310;2024-02-23T00:33:35;96013.8;;;11.5;64.277
24868;BME280;12941;48.698;9.310;2024-02-23T00:34:39;96010.6;;;11.48;64.803
24868;BME280;12941;48.698;9.310;2024-02-23T00:35:39;96012.5;;;11.46;64.249
24868;BME280;12941;48.698;9.310;2024-02-23T00:36:44;96026.5;;;11.42;64.276
24868;BME280;12941;48.698;9.310;2024-02-23T00:37:49;96039.3;;;11.42;64.869
24868;BME280;12941;48.698;9.310;2024-02-23T00:38:54;96039;;;11.37;64.043
24868;BME280;12941;48.698;9.310;2024-02-23T00:39:54;96040.9;;;11.35;64.847
24868;BME280;12941;48.698;9.310;2024-02-23T00:40:54;96044.5;;;11.32;65.222
24868;BME280;12941;48.698;9.310;2024-02-23T00:41:54;96030.2;;;11.3;65.573
24868;BME280;12941;48.698;9.310;2024-02-23T00:42:59;96021.8;;;11.28;65.635
24868;BME280;12941;48.698;9.310;2024-02-23T00:44:00;96031.3;;;11.27;65.277
24868;BME280;12941;48.698;9.310;2024-02-23T00:45:00;96022.1;;;11.25;65.318
24868;BME280;12941;48.698;9.310;2024-02-23T00:46:05;96030.7;;;11.24;65.477
24868;BME280;12941;48.698;9.310;2024-02-23T00:47:09;96026.70000000001;;;11.21;65.107
24868;BME280;12941;48.698;9.310;2024-02-23T00:48:09;96035.2;;;11.22;65.495
24868;BME280;12941;48.698;9.310;2024-02-23T00:49:16;96039.59999999999;;;11.2;65.331
24868;BME280;12941;48.698;9.310;2024-02-23T00:50:19;96033.1;;;11.16;65.013
24868;BME280;12941;48.698;9.310;2024-02-23T00:51:19;96023.8;;;11.15;65.279
24868;BME280;12941;48.698;9.310;2024-02-23T00:52:19;96025.59999999999;;;11.14;65.377
24868;BME280;12941;48.698;9.310;2024-02-23T00:53:25;96028.9;;;11.15;64.978
24868;BME280;12941;48.698;9.310;2024-02-23T00:54:29;96025.8;;;11.11;65.017
24868;BME280;12941;48.698;9.310;2024-02-23T00:55:29;96031.1;;;11.09;64.66
24868;BME280;12941;48.698;9.310;2024-02-23T00:56:29;96025.3;;;11.07;65.044
24868;BME280;12941;48.698;9.310;2024-02-23T00:57:35;96037.59999999999;;;11.04;64.92
24868;BME280;12941;48.698;9.310;2024-02-23T00:58:39;96041;;;11.04;64.394
24868;BME280;12941;48.698;9.310;2024-02-23T00:59:45;96051.5;;;11.01;65.1
24868;BME280;12941;48.698;9.310;2024-02-23T01:00:50;96039.70000000001;;;10.99;65.182
24868;BME280;12941;48.698;9.310;2024-02-23T01:01:49;96045;;;10.97;65.146
24868;BME280;12941;48.698;9.310;2024-02-23T01:02:49;96048.2;;;10.99;65.106
24868;BME280;12941;48.698;9.310;2024-02-23T01:03:49;96042.4;;;10.97;64.619
24868;BME280;12941;48.698;9.310;2024-02-23T01:04:50;96052.5;;;10.99;64.934
24868;BME280;12941;48.698;9.310;2024-02-23T01:05:50;96051.70000000001;;;10.98;65.116
24868;BME280;12941;48.698;9.310;2024-02-23T01:06:55;96053.4;;;10.99;64.654
24868;BME280;12941;48.698;9.310;2024-02-23T01:08:00;96055.2;;;10.97;65.104
24868;BME280;12941;48.698;9.310;2024-02-23T01:09:05;96057.8;;;10.97;65.093
24868;BME280;12941;48.698;9.310;2024-02-23T01:10:05;96052;;;10.95;65.273
24868;BME280;12941;48.698;9.310;2024-02-23T01:11:10;96045.2;;;10.94;65.498
24868;BME280;12941;48.698;9.310;2024-02-23T01:12:16;96045.2;;;10.94;65.961
24868;BME280;12941;48.698;9.310;2024-02-23T01:13:20;96058.4;;;10.9;66.169
24868;BME280;12941;48.698;9.310;2024-02-23T01:14:20;96068.1;;;10.86;66.746
24868;BME280;12941;48.698;9.310;2024-02-23T01:15:25;96064.09999999999;;;10.84;66.979
24868;BME280;12941;48.698;9.310;2024-02-23T01:16:25;96061.7;;;10.82;67.471
24868;BME280;12941;48.698;9.310;2024-02-23T01:17:30;96055.2;;;10.78;67.744
24868;BME280;12941;48.698;9.310;2024-02-23T01:18:30;96051.09999999999;;;10.75;68.03
24868;BME280;12941;48.698;9.310;2024-02-23T01:19:30;96051.2;;;10.74;68.845
24868;BME280;12941;48.698;9.310;2024-02-23T01:20:35;96048;;;10.72;68.971
24868;BME280;12941;48.698;9.310;2024-02-23T01:21:38;96048.2;;;10.7;69.442
24868;BME280;12941;48.698;9.310;2024-02-23T01:22:40;96043;;;10.7;69.26
24868;BME280;12941;48.698;9.310;2024-02-23T01:23:40;96041.5;;;10.68;69.438
24868;BME280;12941;48.698;9.310;2024-02-23T01:24:40;96034.1;;;10.65;69.529
24868;BME280;12941;48.698;9.310;2024-02-23T01:25:45;96035.40000000001;;;10.59;69.435
24868;BME280;12941;48.698;9.310;2024-02-23T01:26:50;96034.90000000001;;;10.56;69.901
24868;BME280;12941;48.698;9.310;2024-02-23T01:27:50;96041.9;;;10.54;70.403
24868;BME280;12941;48.698;9.310;2024-02-23T01:28:55;96037.8;;;10.51;70.185
24868;BME280;12941;48.698;9.310;2024-02-23T01:29:55;96042.2;;;10.49;70.406
24868;BME280;12941;48.698;9.310;2024-02-23T01:30:55;96039.09999999999;;;10.46;70.25
24868;BME280;12941;48.698;9.310;2024-02-23T01:31:55;96042.9;;;10.41;69.814
24868;BME280;12941;48.698;9.310;2024-02-23T01:32:55;96047.6;;;10.36;69.925
24868;BME280;12941;48.698;9.310;2024-02-23T01:34:00;96061.6;;;10.32;70.036
24868;BME280;12941;48.698;9.310;2024-02-23T01:35:00;96049.3;;;10.26;70.51
24868;BME280;12941;48.698;9.310;2024-02-23T01:36:05;96060;;;10.2;70.973
24868;BME280;12941;48.698;9.310;2024-02-23T01:37:05;96049.2;;;10.17;70.772
24868;BME280;12941;48.698;9.310;2024-02-23T01:38:10;96064;;;10.13;70.843
24868;BME280;12941;48.698;9.310;2024-02-23T01:39:10;96064.3;;;10.1;70.719
24868;BME280;12941;48.698;9.310;2024-02-23T01:40:10;96066.4;;;10.05;70.625
24868;BME280;12941;48.698;9.310;2024-02-23T01:41:10;96054.1;;;9.99;70.713
24868;BME280;12941;48.698;9.310;2024-02-23T01:42:16;96060.7;;;9.92;71.312
24868;BME280;12941;48.698;9.310;2024-02-23T01:43:20;96045.5;;;9.89;71.489
24868;BME280;12941;48.698;9.310;2024-02-23T01:44:20;96060.1;;;9.88;71.715
24868;BME280;12941;48.698;9.310;2024-02-23T01:45:25;96058.7;;;9.84;71.835
24868;BME280;12941;48.698;9.310;2024-02-23T01:46:30;96063.3;;;9.81;72.097
24868;BME280;12941;48.698;9.310;2024-02-23T01:47:35;96066.7;;;9.8;72.578
24868;BME280;12941;48.698;9.310;2024-02-23T01:48:40;96064.59999999999;;;9.75;72.709
24868;BME280;12941;48.698;9.310;2024-02-23T01:49:45;96075.09999999999;;;9.72;72.522
24868;BME280;12941;48.698;9.310;2024-02-23T01:50:50;96063.3;;;9.69;72.647
24868;BME280;12941;48.698;9.310;2024-02-23T01:51:50;96062.90000000001;;;9.64;72.734
24868;BME280;12941;48.698;9.310;2024-02-23T01:52:50;96069.1;;;9.62;73.147
24868;BME280;12941;48.698;9.310;2024-02-23T01:53:50;96059.5;;;9.53;73.089
24868;BME280;12941;48.698;9.310;2024-02-23T01:54:55;96058.7;;;9.52;73.121
24868;BME280;12941;48.698;9.310;2024-02-23T01:56:00;96059.2;;;9.46;72.983
24868;BME280;12941;48.698;9.310;2024-02-23T01:57:00;96063.59999999999;;;9.44;73.278
24868;BME280;12941;48.698;9.310;2024-02-23T01:58:05;96070;;;9.4;73.508
24868;BME280;12941;48.698;9.310;2024-02-23T01:59:05;96070.2;;;9.37;73.621
24868;BME280;12941;48.698;9.310;2024-02-23T02:00:05;96080;;;9.32;73.515
24868;BME280;12941;48.698;9.310;2024-02-23T02:01:06;96067.7;;;9.26;73.355
24868;BME280;12941;48.698;9.310;2024-02-23T02:02:11;96071.2;;;9.25;73.942
24868;BME280;12941;48.698;9.310;2024-02-23T02:03:16;96074.1;;;9.2;74.191
24868;BME280;12941;48.698;9.310;2024-02-23T02:04:16;96080.9;;;9.2;74.125
24868;BME280;12941;48.698;9.310;2024-02-23T02:05:21;96072.40000000001;;;9.19;74.189
24868;BME280;12941;48.698;9.310;2024-02-23T02:06:21;96079.2;;;9.2;74.266
24868;BME280;12941;48.698;9.310;2024-02-23T02:07:26;96086.5;;;9.14;73.495
24868;BME280;12941;48.698;9.310;2024-02-23T02:08:26;96083;;;9.15;73.508
24868;BME280;12941;48.698;9.310;2024-02-23T02:09:31;96072.5;;;9.08;73.774
24868;BME280;12941;48.698;9.310;2024-02-23T02:10:36;96077.5;;;9.09;73.725
24868;BME280;12941;48.698;9.310;2024-02-23T02:11:45;96083.90000000001;;;9.04;73.82
24868;BME280;12941;48.698;9.310;2024-02-23T02:12:46;96084.1;;;9.01;73.838
24868;BME280;12941;48.698;9.310;2024-02-23T02:13:46;96086.7;;;9.01;74.309
24868;BME280;12941;48.698;9.310;2024-02-23T02:14:51;96077.59999999999;;;8.97;74.151
24868;BME280;12941;48.698;9.310;2024-02-23T02:15:51;96078.4;;;8.97;74.312
24868;BME280;12941;48.698;9.310;2024-02-23T02:16:56;96084.3;;;8.98;74.474
24868;BME280;12941;48.698;9.310;2024-02-23T02:17:56;96093.5;;;9;73.954
24868;BME280;12941;48.698;9.310;2024-02-23T02:18:56;96095.3;;;9;73.664
24868;BME280;12941;48.698;9.310;2024-02-23T02:19:56;96090.09999999999;;;9;73.813
24868;BME280;12941;48.698;9.310;2024-02-23T02:20:57;96092.7;;;9;73.771
24868;BME280;12941;48.698;9.310;2024-02-23T02:21:56;96086.5;;;9.02;73.883
24868;BME280;12941;48.698;9.310;2024-02-23T02:23:01;96100;;;9.04;73.607
24868;BME280;12941;48.698;9.310;2024-02-23T02:24:06;96092.2;;;9.06;73.878
24868;BME280;12941;48.698;9.310;2024-02-23T02:25:07;96090.5;;;9.06;73.622
24868;BME280;12941;48.698;9.310;2024-02-23T02:26:11;96095.6;;;9.06;73.899
24868;BME280;12941;48.698;9.310;2024-02-23T02:27:16;96091.4;;;9.05;73.407
24868;BME280;12941;48.698;9.310;2024-02-23T02:28:22;96103.3;;;9.06;73.312
24868;BME280;12941;48.698;9.310;2024-02-23T02:29:21;96095.6;;;9.06;73.322
24868;BME280;12941;48.698;9.310;2024-02-23T02:30:26;96097.5;;;9.04;73.565
24868;BME280;12941;48.698;9.310;2024-02-23T02:31:31;96108.6;;;9.03;73.66
24868;BME280;12941;48.698;9.310;2024-02-23T02:32:36;96097.6;;;9.03;73.328
24868;BME280;12941;48.698;9.310;2024-02-23T02:33:41;96108.8;;;9;73.569
24868;BME280;12941;48.698;9.310;2024-02-23T02:34:46;96093.7;;;8.97;73.734
24868;BME280;12941;48.698;9.310;2024-02-23T02:35:46;96091.3;;;8.96;73.637
24868;BME280;12941;48.698;9.310;2024-02-23T02:36:51;96098.40000000001;;;8.92;73.779
24868;BME280;12941;48.698;9.310;2024-02-23T02:37:56;96092.6;;;8.9;73.862
24868;BME280;12941;48.698;9.310;2024-02-23T02:39:01;96088.5;;;8.88;73.91
24868;BME280;12941;48.698;9.310;2024-02-23T02:40:03;96087.7;;;8.87;73.707
24868;BME280;12941;48.698;9.310;2024-02-23T02:41:06;96096.3;;;8.86;74.197
24868;BME280;12941;48.698;9.310;2024-02-23T02:42:11;96091.4;;;8.83;74.17
24868;BME280;12941;48.698;9.310;2024-02-23T02:43:11;96080.5;;;8.81;74.017
24868;BME280;12941;48.698;9.310;2024-02-23T02:44:16;96088.3;;;8.8;74.261
24868;BME280;12941;48.698;9.310;2024-02-23T02:45:21;96085.2;;;8.76;74.437
24868;BME280;12941;48.698;9.310;2024-02-23T02:46:26;96076.8;;;8.74;75.063
24868;BME280;12941;48.698;9.310;2024-02-23T02:47:31;96083.6;;;8.75;74.915
24868;BME280;12941;48.698;9.310;2024-02-23T02:48:31;96081.9;;;8.74;74.893
24868;BME280;12941;48.698;9.310;2024-02-23T02:49:31;96085.40000000001;;;8.73;74.741
24868;BME280;12941;48.698;9.310;2024-02-23T02:50:36;96077.8;;;8.73;74.72
24868;BME280;12941;48.698;9.310;2024-02-23T02:51:41;96076.8;;;8.74;74.903
24868;BME280;12941;48.698;9.310;2024-02-23T02:52:41;96083.8;;;8.72;74.652
24868;BME280;12941;48.698;9.310;2024-02-23T02:53:46;96077.9;;;8.71;74.546
24868;BME280;12941;48.698;9.310;2024-02-23T02:54:46;96087.2;;;8.72;74.793
24868;BME280;12941;48.698;9.310;2024-02-23T02:55:46;96088.8;;;8.73;74.625
24868;BME280;12941;48.698;9.310;2024-02-23T02:56:47;96076.8;;;8.74;74.401
24868;BME280;12941;48.698;9.310;2024-02-23T02:57:51;96080.1;;;8.76;74.351
24868;BME280;12941;48.698;9.310;2024-02-23T02:58:51;96082;;;8.72;74.334
24868;BME280;12941;48.698;9.310;2024-02-23T02:59:56;96088.9;;;8.72;74.695
24868;BME280;12941;48.698;9.310;2024-02-23T03:01:01;96095.6;;;8.73;74.773
24868;BME280;12941;48.698;9.310;2024-02-23T03:02:01;96085.40000000001;;;8.73;74.442
24868;BME280;12941;48.698;9.310;2024-02-23T03:03:06;96094.7;;;8.74;74.476
24868;BME280;12941;48.698;9.310;2024-02-23T03:04:07;96081.9;;;8.74;74.476
24868;BME280;12941;48.698;9.310;2024-02-23T03:05:11;96087;;;8.74;74.294
24868;BME280;12941;48.698;9.310;2024-02-23T03:06:11;96082.8;;;8.74;74.326
24868;BME280;12941;48.698;9.310;2024-02-23T03:07:16;96087.90000000001;;;8.74;74.358
24868;BME280;12941;48.698;9.310;2024-02-23T03:08:21;96084.40000000001;;;8.75;74.479
24868;BME280;12941;48.698;9.310;2024-02-23T03:09:26;96080.7;;;8.78;74.666
24868;BME280;12941;48.698;9.310;2024-02-23T03:10:31;96074.8;;;8.78;74.407
24868;BME280;12941;48.698;9.310;2024-02-23T03:11:31;96078.9;;;8.8;74.006
24868;BME280;12941;48.698;9.310;2024-02-23T03:12:36;96083.90000000001;;;8.82;74.094
24868;BME280;12941;48.698;9.310;2024-02-23T03:13:41;96082.1;;;8.82;74.202
24868;BME280;12941;48.698;9.310;2024-02-23T03:14:41;96086.3;;;8.83;73.935
24868;BME280;12941;48.698;9.310;2024-02-23T03:15:46;96090.7;;;8.81;73.782
24868;BME280;12941;48.698;9.310;2024-02-23T03:16:51;96084.1;;;8.79;73.789
24868;BME280;12941;48.698;9.310;2024-02-23T03:17:51;96083.1;;;8.81;74.049
24868;BME280;12941;48.698;9.310;2024-02-23T03:18:51;96080.6;;;8.8;74.24
24868;BME280;12941;48.698;9.310;2024-02-23T03:19:56;96077.3;;;8.79;73.918
24868;BME280;12941;48.698;9.310;2024-02-23T03:21:01;96073.1;;;8.78;74.185
24868;BME280;12941;48.698;9.310;2024-02-23T03:22:01;96075.59999999999;;;8.78;74.142
24868;BME280;12941;48.698;9.310;2024-02-23T03:23:01;96075.5;;;8.8;74.176
24868;BME280;12941;48.698;9.310;2024-02-23T03:24:06;96080.7;;;8.78;74.003
24868;BME280;12941;48.698;9.310;2024-02-23T03:25:06;96078.2;;;8.78;74.089
24868;BME280;12941;48.698;9.310;2024-02-23T03:26:07;96098.6;;;8.78;74.281
24868;BME280;12941;48.698;9.310;2024-02-23T03:27:14;96097;;;8.77;74.128
24868;BME280;12941;48.698;9.310;2024-02-23T03:28:11;96085.2;;;8.76;73.582
24868;BME280;12941;48.698;9.310;2024-02-23T03:29:11;96081.7;;;8.77;73.477
24868;BME280;12941;48.698;9.310;2024-02-23T03:30:16;96078.2;;;8.78;73.768
24868;BME280;12941;48.698;9.310;2024-02-23T03:31:21;96080.6;;;8.8;73.823
24868;BME280;12941;48.698;9.310;2024-02-23T03:32:21;96071.2;;;8.8;73.793
24868;BME280;12941;48.698;9.310;2024-02-23T03:33:26;96067.7;;;8.81;73.344
24868;BME280;12941;48.698;9.310;2024-02-23T03:34:26;96062.59999999999;;;8.81;73.344
24868;BME280;12941;48.698;9.310;2024-02-23T03:35:31;96064.3;;;8.82;73.39
24868;BME280;12941;48.698;9.310;2024-02-23T03:36:36;96059.79999999999;;;8.84;73.136
24868;BME280;12941;48.698;9.310;2024-02-23T03:37:41;96067.3;;;8.87;73.344
24868;BME280;12941;48.698;9.310;2024-02-23T03:38:46;96075.59999999999;;;8.89;72.888
24868;BME280;12941;48.698;9.310;2024-02-23T03:39:51;96084;;;8.91;73.308
24868;BME280;12941;48.698;9.310;2024-02-23T03:40:56;96093.2;;;8.94;73.12
24868;BME280;12941;48.698;9.310;2024-02-23T03:42:01;96082.8;;;8.95;73.132
24868;BME280;12941;48.698;9.310;2024-02-23T03:43:01;96076.70000000001;;;8.98;72.741
24868;BME280;12941;48.698;9.310;2024-02-23T03:44:01;96081.7;;;8.99;72.466
24868;BME280;12941;48.698;9.310;2024-02-23T03:45:02;96077.4;;;9;72.584
24868;BME280;12941;48.698;9.310;2024-02-23T03:46:06;96094.2;;;9.02;72.311
24868;BME280;12941;48.698;9.310;2024-02-23T03:47:07;96101;;;9.03;72.43
24868;BME280;12941;48.698;9.310;2024-02-23T03:48:07;96108.4;;;9.06;72.573
24868;BME280;12941;48.698;9.310;2024-02-23T03:49:06;96105.6;;;9.09;72.419
24868;BME280;12941;48.698;9.310;2024-02-23T03:50:11;96105.6;;;9.09;72.355
24868;BME280;12941;48.698;9.310;2024-02-23T03:51:11;96111.40000000001;;;9.12;72.24
24868;BME280;12941;48.698;9.310;2024-02-23T03:52:11;96108.7;;;9.13;72.424
24868;BME280;12941;48.698;9.310;2024-02-23T03:53:11;96112.8;;;9.16;72.107
24868;BME280;12941;48.698;9.310;2024-02-23T03:54:16;96120.3;;;9.17;72.025
24868;BME280;12941;48.698;9.310;2024-02-23T03:55:16;96121;;;9.19;71.696
24868;BME280;12941;48.698;9.310;2024-02-23T03:56:21;96118.3;;;9.21;71.698
24868;BME280;12941;48.698;9.310;2024-02-23T03:57:21;96110.40000000001;;;9.24;71.929
24868;BME280;12941;48.698;9.310;2024-02-23T03:58:26;96105.1;;;9.27;71.291
24868;BME280;12941;48.698;9.310;2024-02-23T03:59:31;96096.2;;;9.31;70.785
24868;BME280;12941;48.698;9.310;2024-02-23T04:00:32;96092.5;;;9.35;70.298
24868;BME280;12941;48.698;9.310;2024-02-23T04:01:37;96078.8;;;9.36;70.523
24868;BME280;12941;48.698;9.310;2024-02-23T04:02:36;96075.9;;;9.4;70.209
24868;BME280;12941;48.698;9.310;2024-02-23T04:03:41;96081.5;;;9.44;70.13
24868;BME280;12941;48.698;9.310;2024-02-23T04:04:41;96082.9;;;9.48;70.362
24868;BME280;12941;48.698;9.310;2024-02-23T04:05:46;96080.8;;;9.53;69.802
24868;BME280;12941;48.698;9.310;2024-02-23T04:06:46;96084.90000000001;;;9.56;69.484
24868;BME280;12941;48.698;9.310;2024-02-23T04:07:47;96099.2;;;9.58;69.328
24868;BME280;12941;48.698;9.310;2024-02-23T04:08:51;96109.2;;;9.61;68.795
24868;BME280;12941;48.698;9.310;2024-02-23T04:09:56;96112.40000000001;;;9.63;69.218
24868;BME280;12941;48.698;9.310;2024-02-23T04:10:56;96099.59999999999;;;9.63;68.617
24868;BME280;12941;48.698;9.310;2024-02-23T04:11:56;96096.7;;;9.68;68.668
24868;BME280;12941;48.698;9.310;2024-02-23T04:12:57;96096.6;;;9.69;68.306
24868;BME280;12941;48.698;9.310;2024-02-23T04:13:56;96100.8;;;9.7;68.402
24868;BME280;12941;48.698;9.310;2024-02-23T04:15:02;96104;;;9.72;68.181
24868;BME280;12941;48.698;9.310;2024-02-23T04:16:02;96113.3;;;9.73;68.28
24868;BME280;12941;48.698;9.310;2024-02-23T04:17:02;96101.2;;;9.75;68.111
24868;BME280;12941;48.698;9.310;2024-02-23T04:18:02;96099.3;;;9.77;68.242
24868;BME280;12941;48.698;9.310;2024-02-23T04:19:02;96099.90000000001;;;9.81;68.142
24868;BME280;12941;48.698;9.310;2024-02-23T04:20:05;96100.5;;;9.85;68.564
24868;BME280;12941;48.698;9.310;2024-02-23T04:21:06;96095.9;;;9.88;67.713
24868;BME280;12941;48.698;9.310;2024-02-23T04:22:11;96106.7;;;9.92;67.524
24868;BME280;12941;48.698;9.310;2024-02-23T04:23:16;96101.3;;;9.95;67.09
24868;BME280;12941;48.698;9.310;2024-02-23T04:24:16;96107.2;;;9.97;67.018
24868;BME280;12941;48.698;9.310;2024-02-23T04:25:21;96100;;;10;66.989
24868;BME280;12941;48.698;9.310;2024-02-23T04:26:26;96089.59999999999;;;10.03;66.318
24868;BME280;12941;48.698;9.310;2024-02-23T04:27:26;96098.7;;;10.06;66.472
24868;BME280;12941;48.698;9.310;2024-02-23T04:28:31;96101;;;10.09;66.863
24868;BME280;12941;48.698;9.310;2024-02-23T04:29:36;96091.4;;;10.13;67.159
24868;BME280;12941;48.698;9.310;2024-02-23T04:30:36;96101.5;;;10.14;67.227
24868;BME280;12941;48.698;9.310;2024-02-23T04:31:42;96102.8;;;10.18;67.437
24868;BME280;12941;48.698;9.310;2024-02-23T04:32:44;96098.29999999999;;;10.22;67.237
24868;BME280;12941;48.698;9.310;2024-02-23T04:33:42;96085.2;;;10.26;67.363
24868;BME280;12941;48.698;9.310;2024-02-23T04:34:46;96083.3;;;10.28;66.765
24868;BME280;12941;48.698;9.310;2024-02-23T04:35:51;96079.8;;;10.29;66.626
24868;BME280;12941;48.698;9.310;2024-02-23T04:36:57;96081.1;;;10.33;66.88
24868;BME280;12941;48.698;9.310;2024-02-23T04:37:57;96086;;;10.36;66.896
24868;BME280;12941;48.698;9.310;2024-02-23T04:39:01;96086.7;;;10.38;66.242
24868;BME280;12941;48.698;9.310;2024-02-23T04:40:02;96100.2;;;10.4;66.159
24868;BME280;12941;48.698;9.310;2024-02-23T04:41:06;96099.2;;;10.41;65.73
24868;BME280;12941;48.698;9.310;2024-02-23T04:42:11;96102.5;;;10.43;65.572
24868;BME280;12941;48.698;9.310;2024-02-23T04:43:16;96099;;;10.44;65.714
24868;BME280;12941;48.698;9.310;2024-02-23T04:44:17;96088.59999999999;;;10.46;65.824
24868;BME280;12941;48.698;9.310;2024-02-23T04:45:22;96086.90000000001;;;10.47;65.985
24868;BME280;12941;48.698;9.310;2024-02-23T04:46:27;96090.09999999999;;;10.49;66.16
24868;BME280;12941;48.698;9.310;2024-02-23T04:47:32;96085.79999999999;;;10.49;66.409
24868;BME280;12941;48.698;9.310;2024-02-23T04:48:37;96093.4;;;10.51;66.303
24868;BME280;12941;48.698;9.310;2024-02-23T04:49:41;96092.3;;;10.53;66.264
24868;BME280;12941;48.698;9.310;2024-02-23T04:50:41;96083.7;;;10.54;66.331
24868;BME280;12941;48.698;9.310;2024-02-23T04:51:47;96070.7;;;10.56;65.838
24868;BME280;12941;48.698;9.310;2024-02-23T04:52:51;96082.6;;;10.57;65.723
24868;BME280;12941;48.698;9.310;2024-02-23T04:53:56;96077.3;;;10.58;65.003
24868;BME280;12941;48.698;9.310;2024-02-23T04:54:57;96073.90000000001;;;10.59;64.951
24868;BME280;12941;48.698;9.310;2024-02-23T04:55:56;96077.20000000001;;;10.6;64.521
24868;BME280;12941;48.698;9.310;2024-02-23T04:57:02;96084;;;10.61;64.556
24868;BME280;12941;48.698;9.310;2024-02-23T04:58:07;96082.1;;;10.63;64.816
24868;BME280;12941;48.698;9.310;2024-02-23T04:59:11;96076;;;10.64;64.603
24868;BME280;12941;48.698;9.310;2024-02-23T05:00:17;96076;;;10.64;64.731
24868;BME280;12941;48.698;9.310;2024-02-23T05:01:17;96078.59999999999;;;10.64;64.937
24868;BME280;12941;48.698;9.310;2024-02-23T05:02:17;96070.9;;;10.64;65.076
24868;BME280;12941;48.698;9.310;2024-02-23T05:03:22;96073.5;;;10.64;65.216
24868;BME280;12941;48.698;9.310;2024-02-23T05:04:27;96073.5;;;10.64;65.421
24868;BME280;12941;48.698;9.310;2024-02-23T05:05:27;96068.3;;;10.64;65.55
24868;BME280;12941;48.698;9.310;2024-02-23T05:06:32;96072.5;;;10.65;65.81
24868;BME280;12941;48.698;9.310;2024-02-23T05:07:32;96070;;;10.65;65.153
24868;BME280;12941;48.698;9.310;2024-02-23T05:08:36;96067.4;;;10.65;64.442
24868;BME280;12941;48.698;9.310;2024-02-23T05:09:36;96074.8;;;10.68;64.855
24868;BME280;12941;48.698;9.310;2024-02-23T05:10:42;96076.5;;;10.69;64.652
24868;BME280;12941;48.698;9.310;2024-02-23T05:11:47;96078.09999999999;;;10.7;64.869
24868;BME280;12941;48.698;9.310;2024-02-23T05:12:51;96076.5;;;10.69;65.04
24868;BME280;12941;48.698;9.310;2024-02-23T05:13:51;96079.7;;;10.71;65.086
24868;BME280;12941;48.698;9.310;2024-02-23T05:14:52;96081.3;;;10.72;65.281
24868;BME280;12941;48.698;9.310;2024-02-23T05:15:52;96078.8;;;10.72;65.076
24868;BME280;12941;48.698;9.310;2024-02-23T05:16:57;96078.8;;;10.72;65.346
24868;BME280;12941;48.698;9.310;2024-02-23T05:18:02;96081.3;;;10.72;65.206
24868;BME280;12941;48.698;9.310;2024-02-23T05:19:02;96079.4;;;10.74;65.316
24868;BME280;12941;48.698;9.310;2024-02-23T05:20:02;96088.7;;;10.75;65.513
24868;BME280;12941;48.698;9.310;2024-02-23T05:21:07;96089.70000000001;;;10.74;65.402
24868;BME280;12941;48.698;9.310;2024-02-23T05:22:07;96096.40000000001;;;10.75;65.05
24868;BME280;12941;48.698;9.310;2024-02-23T05:23:07;96090.4;;;10.76;65.222
24868;BME280;12941;48.698;9.310;2024-02-23T05:24:07;96083.6;;;10.75;65.771
24868;BME280;12941;48.698;9.310;2024-02-23T05:25:12;96093.7;;;10.76;65.848
24868;BME280;12941;48.698;9.310;2024-02-23T05:26:17;96089.4;;;10.77;65.752
24868;BME280;12941;48.698;9.310;2024-02-23T05:27:22;96090.20000000001;;;10.77;65.732
24868;BME280;12941;48.698;9.310;2024-02-23T05:28:27;96094.4;;;10.78;65.883
24868;BME280;12941;48.698;9.310;2024-02-23T05:29:27;96097;;;10.78;65.689